sensor_id;sensor_type;location;lat;lon;timestamp;pressure;altitude;pressure_sealevel;temperature;humidity
23059;BME280;30585;51.502;7.218;2022-08-01T00:03:17;154867.03;;;18.58;100.00
23059;BME280;30585;51.502;7.218;2022-08-01T00:05:45;154868.38;;;18.58;100.00
23059;BME280;30585;51.502;7.218;2022-08-01T00:08:13;154882.66;;;18.64;100.00
23059;BME280;30585;51.502;7.218;2022-08-01T00:10:42;154882.66;;;18.64;100.00
23059;BME280;30585;51.502;7.218;2022-08-01T00:13:10;154895.63;;;18.69;100.00
23059;BME280;30585;51.502;7.218;2022-08-01T00:15:38;154887.81;;;18.66;100.00
23059;BME280;30585;51.502;7.218;2022-08-01T00:18:17;154869.66;;;18.59;100.00
23059;BME280;30585;51.502;7.218;2022-08-01T00:20:45;154881.34;;;18.63;100.00
23059;BME280;30585;51.502;7.218;2022-08-01T00:23:12;154887.81;;;18.66;100.00
23059;BME280;30585;51.502;7.218;2022-08-01T00:25:40;154869.66;;;18.59;100.00
23059;BME280;30585;51.502;7.218;2022-08-01T00:28:10;154868.38;;;18.58;100.00
23059;BME280;30585;51.502;7.218;2022-08-01T00:30:38;154880.06;;;18.63;100.00
23059;BME280;30585;51.502;7.218;2022-08-01T00:33:05;154833.28;;;18.44;100.00
23059;BME280;30585;51.502;7.218;2022-08-01T00:35:33;154873.56;;;18.60;100.00
23059;BME280;30585;51.502;7.218;2022-08-01T00:38:01;154882.66;;;18.64;100.00
23059;BME280;30585;51.502;7.218;2022-08-01T00:40:29;154847.59;;;18.50;100.00
23059;BME280;30585;51.502;7.218;2022-08-01T00:42:57;154826.81;;;18.42;100.00
23059;BME280;30585;51.502;7.218;2022-08-01T00:45:26;154830.69;;;18.43;100.00
23059;BME280;30585;51.502;7.218;2022-08-01T00:47:54;154842.38;;;18.48;100.00
23059;BME280;30585;51.502;7.218;2022-08-01T00:50:23;154839.78;;;18.47;100.00
23059;BME280;30585;51.502;7.218;2022-08-01T00:52:51;154835.91;;;18.45;100.00
23059;BME280;30585;51.502;7.218;2022-08-01T00:55:19;154809.91;;;18.35;100.00
23059;BME280;30585;51.502;7.218;2022-08-01T00:57:48;154837.19;;;18.46;100.00
23059;BME280;30585;51.502;7.218;2022-08-01T01:00:33;154864.44;;;18.57;100.00
23059;BME280;30585;51.502;7.218;2022-08-01T01:03:21;154834.56;;;18.45;100.00
23059;BME280;30585;51.502;7.218;2022-08-01T01:06:25;154859.28;;;18.55;100.00
23059;BME280;30585;51.502;7.218;2022-08-01T01:09:02;154839.78;;;18.47;100.00
23059;BME280;30585;51.502;7.218;2022-08-01T01:11:36;154843.66;;;18.48;100.00
23059;BME280;30585;51.502;7.218;2022-08-01T01:14:10;154861.88;;;18.56;100.00
23059;BME280;30585;51.502;7.218;2022-08-01T01:16:42;154843.66;;;18.48;100.00
23059;BME280;30585;51.502;7.218;2022-08-01T01:19:15;154851.47;;;18.51;100.00
23059;BME280;30585;51.502;7.218;2022-08-01T01:21:56;154839.78;;;18.47;100.00
23059;BME280;30585;51.502;7.218;2022-08-01T01:24:37;154882.66;;;18.64;100.00
23059;BME280;30585;51.502;7.218;2022-08-01T01:27:21;154882.66;;;18.64;100.00
23059;BME280;30585;51.502;7.218;2022-08-01T01:29:56;154899.56;;;18.71;100.00
23059;BME280;30585;51.502;7.218;2022-08-01T01:32:31;154904.72;;;18.73;100.00
23059;BME280;30585;51.502;7.218;2022-08-01T01:35:04;154881.34;;;18.63;100.00
23059;BME280;30585;51.502;7.218;2022-08-01T01:37:33;154880.06;;;18.63;100.00
23059;BME280;30585;51.502;7.218;2022-08-01T01:40:04;154900.84;;;18.71;100.00
23059;BME280;30585;51.502;7.218;2022-08-01T01:42:33;154872.25;;;18.60;100.00
23059;BME280;30585;51.502;7.218;2022-08-01T01:45:05;154861.88;;;18.56;100.00
23059;BME280;30585;51.502;7.218;2022-08-01T01:47:34;154896.97;;;18.69;100.00
23059;BME280;30585;51.502;7.218;2022-08-01T01:50:05;154894.38;;;18.68;100.00
23059;BME280;30585;51.502;7.218;2022-08-01T01:52:36;154869.66;;;18.59;100.00
23059;BME280;30585;51.502;7.218;2022-08-01T01:55:07;154860.56;;;18.55;100.00
23059;BME280;30585;51.502;7.218;2022-08-01T01:57:38;154870.97;;;18.59;100.00
23059;BME280;30585;51.502;7.218;2022-08-01T02:00:10;154867.03;;;18.58;100.00
23059;BME280;30585;51.502;7.218;2022-08-01T02:02:39;154839.78;;;18.47;100.00
23059;BME280;30585;51.502;7.218;2022-08-01T02:05:10;154833.28;;;18.44;100.00
23059;BME280;30585;51.502;7.218;2022-08-01T02:07:39;154841.06;;;18.47;100.00
23059;BME280;30585;51.502;7.218;2022-08-01T02:10:08;154839.78;;;18.47;100.00
23059;BME280;30585;51.502;7.218;2022-08-01T02:12:39;154819.00;;;18.38;100.00
23059;BME280;30585;51.502;7.218;2022-08-01T02:15:11;154831.97;;;18.44;100.00
23059;BME280;30585;51.502;7.218;2022-08-01T02:17:43;154795.63;;;18.29;100.00
23059;BME280;30585;51.502;7.218;2022-08-01T02:20:12;154799.50;;;18.31;100.00
23059;BME280;30585;51.502;7.218;2022-08-01T02:22:42;154773.50;;;18.20;100.00
23059;BME280;30585;51.502;7.218;2022-08-01T02:25:16;154807.31;;;18.34;100.00
23059;BME280;30585;51.502;7.218;2022-08-01T02:27:49;154835.91;;;18.45;100.00
23059;BME280;30585;51.502;7.218;2022-08-01T02:30:20;154820.28;;;18.39;100.00
23059;BME280;30585;51.502;7.218;2022-08-01T02:32:51;154809.91;;;18.35;100.00
23059;BME280;30585;51.502;7.218;2022-08-01T02:35:23;154828.09;;;18.42;100.00
23059;BME280;30585;51.502;7.218;2022-08-01T02:37:53;154830.69;;;18.43;100.00
23059;BME280;30585;51.502;7.218;2022-08-01T02:40:23;154790.41;;;18.27;100.00
23059;BME280;30585;51.502;7.218;2022-08-01T02:42:52;154786.53;;;18.26;100.00
23059;BME280;30585;51.502;7.218;2022-08-01T02:45:25;154760.53;;;18.15;100.00
23059;BME280;30585;51.502;7.218;2022-08-01T02:47:57;154816.38;;;18.37;100.00
23059;BME280;30585;51.502;7.218;2022-08-01T02:50:27;154764.41;;;18.17;100.00
23059;BME280;30585;51.502;7.218;2022-08-01T02:52:57;154750.13;;;18.11;100.00
23059;BME280;30585;51.502;7.218;2022-08-01T02:55:25;154781.31;;;18.24;100.00
23059;BME280;30585;51.502;7.218;2022-08-01T02:57:54;154718.94;;;17.99;100.00
23059;BME280;30585;51.502;7.218;2022-08-01T03:00:28;154760.53;;;18.15;100.00
23059;BME280;30585;51.502;7.218;2022-08-01T03:02:59;154770.91;;;18.19;100.00
23059;BME280;30585;51.502;7.218;2022-08-01T03:05:27;154748.84;;;18.11;100.00
23059;BME280;30585;51.502;7.218;2022-08-01T03:07:56;154738.44;;;18.06;100.00
23059;BME280;30585;51.502;7.218;2022-08-01T03:10:30;154763.16;;;18.16;100.00
23059;BME280;30585;51.502;7.218;2022-08-01T03:13:01;154782.59;;;18.24;100.00
23059;BME280;30585;51.502;7.218;2022-08-01T03:15:34;154783.91;;;18.25;100.00
23059;BME280;30585;51.502;7.218;2022-08-01T03:18:05;154722.88;;;18.00;100.00
23059;BME280;30585;51.502;7.218;2022-08-01T03:20:34;154729.34;;;18.03;100.00
23059;BME280;30585;51.502;7.218;2022-08-01T03:23:05;154757.94;;;18.14;100.00
23059;BME280;30585;51.502;7.218;2022-08-01T03:25:35;154796.88;;;18.30;100.00
23059;BME280;30585;51.502;7.218;2022-08-01T03:28:06;154795.63;;;18.29;100.00
23059;BME280;30585;51.502;7.218;2022-08-01T03:30:37;154778.72;;;18.22;100.00
23059;BME280;30585;51.502;7.218;2022-08-01T03:33:05;154809.91;;;18.35;100.00
23059;BME280;30585;51.502;7.218;2022-08-01T03:35:36;154791.69;;;18.28;100.00
23059;BME280;30585;51.502;7.218;2022-08-01T03:38:08;154799.50;;;18.31;100.00
23059;BME280;30585;51.502;7.218;2022-08-01T03:40:45;154809.91;;;18.35;100.00
23059;BME280;30585;51.502;7.218;2022-08-01T03:43:19;154825.47;;;18.41;100.00
23059;BME280;30585;51.502;7.218;2022-08-01T03:45:51;154822.88;;;18.40;100.00
23059;BME280;30585;51.502;7.218;2022-08-01T03:48:22;154794.28;;;18.29;100.00
23059;BME280;30585;51.502;7.218;2022-08-01T03:50:57;154815.13;;;18.37;100.00
23059;BME280;30585;51.502;7.218;2022-08-01T03:53:29;154809.91;;;18.35;100.00
23059;BME280;30585;51.502;7.218;2022-08-01T03:56:00;154844.97;;;18.49;100.00
23059;BME280;30585;51.502;7.218;2022-08-01T03:58:28;154835.91;;;18.45;100.00
23059;BME280;30585;51.502;7.218;2022-08-01T04:00:58;154811.19;;;18.35;100.00
23059;BME280;30585;51.502;7.218;2022-08-01T04:03:27;154809.91;;;18.35;100.00
23059;BME280;30585;51.502;7.218;2022-08-01T04:05:56;154786.53;;;18.26;100.00
23059;BME280;30585;51.502;7.218;2022-08-01T04:08:34;154800.81;;;18.31;100.00
23059;BME280;30585;51.502;7.218;2022-08-01T04:11:02;154822.88;;;18.40;100.00
23059;BME280;30585;51.502;7.218;2022-08-01T04:13:30;154822.88;;;18.40;100.00
23059;BME280;30585;51.502;7.218;2022-08-01T04:16:05;154808.59;;;18.34;100.00
23059;BME280;30585;51.502;7.218;2022-08-01T04:18:33;154774.84;;;18.21;100.00
23059;BME280;30585;51.502;7.218;2022-08-01T04:21:01;154787.81;;;18.26;100.00
23059;BME280;30585;51.502;7.218;2022-08-01T04:23:30;154759.22;;;18.15;100.00
23059;BME280;30585;51.502;7.218;2022-08-01T04:26:02;154796.88;;;18.30;100.00
23059;BME280;30585;51.502;7.218;2022-08-01T04:28:33;154833.28;;;18.44;100.00
23059;BME280;30585;51.502;7.218;2022-08-01T04:31:06;154807.31;;;18.34;100.00
23059;BME280;30585;51.502;7.218;2022-08-01T04:33:38;154822.88;;;18.40;100.00
23059;BME280;30585;51.502;7.218;2022-08-01T04:36:09;154802.09;;;18.32;100.00
23059;BME280;30585;51.502;7.218;2022-08-01T04:38:40;154791.69;;;18.28;100.00
23059;BME280;30585;51.502;7.218;2022-08-01T04:41:11;154796.88;;;18.30;100.00
23059;BME280;30585;51.502;7.218;2022-08-01T04:43:40;154789.13;;;18.27;100.00
23059;BME280;30585;51.502;7.218;2022-08-01T04:46:11;154805.97;;;18.33;100.00
23059;BME280;30585;51.502;7.218;2022-08-01T04:48:41;154803.38;;;18.32;100.00
23059;BME280;30585;51.502;7.218;2022-08-01T04:51:12;154807.31;;;18.34;100.00
23059;BME280;30585;51.502;7.218;2022-08-01T04:53:42;154800.81;;;18.31;100.00
23059;BME280;30585;51.502;7.218;2022-08-01T04:56:10;154791.69;;;18.28;100.00
23059;BME280;30585;51.502;7.218;2022-08-01T04:58:39;154757.94;;;18.14;100.00
23059;BME280;30585;51.502;7.218;2022-08-01T05:01:08;154816.38;;;18.37;100.00
23059;BME280;30585;51.502;7.218;2022-08-01T05:03:38;154769.63;;;18.19;100.00
23059;BME280;30585;51.502;7.218;2022-08-01T05:06:06;154774.84;;;18.21;100.00
23059;BME280;30585;51.502;7.218;2022-08-01T05:08:34;154785.19;;;18.25;100.00
23059;BME280;30585;51.502;7.218;2022-08-01T05:11:03;154791.69;;;18.28;100.00
23059;BME280;30585;51.502;7.218;2022-08-01T05:13:30;154800.81;;;18.31;100.00
23059;BME280;30585;51.502;7.218;2022-08-01T05:15:58;154820.28;;;18.39;100.00
23059;BME280;30585;51.502;7.218;2022-08-01T05:18:26;154820.28;;;18.39;100.00
23059;BME280;30585;51.502;7.218;2022-08-01T05:20:57;154780.00;;;18.23;100.00
23059;BME280;30585;51.502;7.218;2022-08-01T05:23:25;154837.19;;;18.46;100.00
23059;BME280;30585;51.502;7.218;2022-08-01T05:26:08;154822.88;;;18.40;100.00
23059;BME280;30585;51.502;7.218;2022-08-01T05:28:39;154825.47;;;18.41;100.00
23059;BME280;30585;51.502;7.218;2022-08-01T05:31:07;154843.66;;;18.48;100.00
23059;BME280;30585;51.502;7.218;2022-08-01T05:33:35;154846.25;;;18.49;100.00
23059;BME280;30585;51.502;7.218;2022-08-01T05:36:04;154847.59;;;18.50;100.00
23059;BME280;30585;51.502;7.218;2022-08-01T05:38:32;154804.69;;;18.33;100.00
23059;BME280;30585;51.502;7.218;2022-08-01T05:41:00;154803.38;;;18.32;100.00
23059;BME280;30585;51.502;7.218;2022-08-01T05:43:28;154825.47;;;18.41;100.00
23059;BME280;30585;51.502;7.218;2022-08-01T05:45:56;154831.97;;;18.44;100.00
23059;BME280;30585;51.502;7.218;2022-08-01T05:48:24;154774.84;;;18.21;100.00
23059;BME280;30585;51.502;7.218;2022-08-01T05:50:53;154841.06;;;18.47;100.00
23059;BME280;30585;51.502;7.218;2022-08-01T05:53:26;154835.91;;;18.45;100.00
23059;BME280;30585;51.502;7.218;2022-08-01T05:55:54;154800.81;;;18.31;100.00
23059;BME280;30585;51.502;7.218;2022-08-01T05:58:22;154846.25;;;18.49;100.00
23059;BME280;30585;51.502;7.218;2022-08-01T06:00:50;154830.69;;;18.43;100.00
23059;BME280;30585;51.502;7.218;2022-08-01T06:03:18;154800.81;;;18.31;100.00
23059;BME280;30585;51.502;7.218;2022-08-01T06:05:46;154803.38;;;18.32;100.00
23059;BME280;30585;51.502;7.218;2022-08-01T06:08:14;154833.28;;;18.44;100.00
23059;BME280;30585;51.502;7.218;2022-08-01T06:10:43;154813.78;;;18.36;100.00
23059;BME280;30585;51.502;7.218;2022-08-01T06:13:11;154822.88;;;18.40;100.00
23059;BME280;30585;51.502;7.218;2022-08-01T06:15:39;154829.34;;;18.43;100.00
23059;BME280;30585;51.502;7.218;2022-08-01T06:18:07;154829.34;;;18.43;100.00
23059;BME280;30585;51.502;7.218;2022-08-01T06:20:35;154848.88;;;18.50;100.00
23059;BME280;30585;51.502;7.218;2022-08-01T06:23:03;154867.03;;;18.58;100.00
23059;BME280;30585;51.502;7.218;2022-08-01T06:25:53;154881.34;;;18.63;100.00
23059;BME280;30585;51.502;7.218;2022-08-01T06:28:21;154887.81;;;18.66;100.00
23059;BME280;30585;51.502;7.218;2022-08-01T06:30:49;154915.16;;;18.77;100.00
23059;BME280;30585;51.502;7.218;2022-08-01T06:33:17;154911.25;;;18.75;100.00
23059;BME280;30585;51.502;7.218;2022-08-01T06:35:45;154929.44;;;18.82;100.00
23059;BME280;30585;51.502;7.218;2022-08-01T06:38:13;154932.03;;;18.83;100.00
23059;BME280;30585;51.502;7.218;2022-08-01T06:40:40;154919.03;;;18.78;100.00
23059;BME280;30585;51.502;7.218;2022-08-01T06:43:10;154974.94;;;19.00;100.00
23059;BME280;30585;51.502;7.218;2022-08-01T06:45:39;154977.56;;;19.02;100.00
23059;BME280;30585;51.502;7.218;2022-08-01T06:48:07;155008.75;;;19.14;100.00
23059;BME280;30585;51.502;7.218;2022-08-01T06:50:34;155028.28;;;19.22;100.00
23059;BME280;30585;51.502;7.218;2022-08-01T06:53:03;155006.16;;;19.13;100.00
23059;BME280;30585;51.502;7.218;2022-08-01T06:55:31;155054.28;;;19.32;100.00
23059;BME280;30585;51.502;7.218;2022-08-01T06:57:59;155084.16;;;19.44;100.00
23059;BME280;30585;51.502;7.218;2022-08-01T07:00:28;155104.94;;;19.52;100.00
23059;BME280;30585;51.502;7.218;2022-08-01T07:02:57;155155.63;;;19.72;100.00
23059;BME280;30585;51.502;7.218;2022-08-01T07:05:26;155110.16;;;19.54;100.00
23059;BME280;30585;51.502;7.218;2022-08-01T07:07:54;155181.66;;;19.83;100.00
23059;BME280;30585;51.502;7.218;2022-08-01T07:10:22;155146.53;;;19.69;100.00
23059;BME280;30585;51.502;7.218;2022-08-01T07:12:50;155167.34;;;19.77;100.00
23059;BME280;30585;51.502;7.218;2022-08-01T07:15:18;155146.53;;;19.69;100.00
23059;BME280;30585;51.502;7.218;2022-08-01T07:17:49;155228.50;;;20.01;100.00
23059;BME280;30585;51.502;7.218;2022-08-01T07:20:17;155300.06;;;20.30;100.00
23059;BME280;30585;51.502;7.218;2022-08-01T07:22:45;155327.34;;;20.40;100.00
23059;BME280;30585;51.502;7.218;2022-08-01T07:25:14;155376.78;;;20.60;100.00
23059;BME280;30585;51.502;7.218;2022-08-01T07:27:42;155387.22;;;20.64;100.00
23059;BME280;30585;51.502;7.218;2022-08-01T07:30:10;155474.44;;;20.99;100.00
23059;BME280;30585;51.502;7.218;2022-08-01T07:32:38;155400.22;;;20.69;100.00
23059;BME280;30585;51.502;7.218;2022-08-01T07:35:08;155423.69;;;20.79;100.00
23059;BME280;30585;51.502;7.218;2022-08-01T07:37:36;155465.34;;;20.95;100.00
23059;BME280;30585;51.502;7.218;2022-08-01T07:40:15;155464.03;;;20.95;100.00
23059;BME280;30585;51.502;7.218;2022-08-01T07:42:43;155564.25;;;21.35;100.00
23059;BME280;30585;51.502;7.218;2022-08-01T07:45:12;155622.81;;;21.58;100.00
23059;BME280;30585;51.502;7.218;2022-08-01T07:47:40;155586.34;;;21.43;100.00
23059;BME280;30585;51.502;7.218;2022-08-01T07:50:09;155665.78;;;21.75;100.00
23059;BME280;30585;51.502;7.218;2022-08-01T07:52:39;155630.66;;;21.61;100.00
23059;BME280;30585;51.502;7.218;2022-08-01T07:55:08;155566.81;;;21.36;100.00
23059;BME280;30585;51.502;7.218;2022-08-01T07:57:37;155561.66;;;21.33;100.00
23059;BME280;30585;51.502;7.218;2022-08-01T08:00:06;155556.44;;;21.31;100.00
23059;BME280;30585;51.502;7.218;2022-08-01T08:02:35;155634.59;;;21.62;100.00
23059;BME280;30585;51.502;7.218;2022-08-01T08:05:03;155665.78;;;21.75;100.00
23059;BME280;30585;51.502;7.218;2022-08-01T08:07:34;155747.81;;;22.07;100.00
23059;BME280;30585;51.502;7.218;2022-08-01T08:10:03;155706.16;;;21.91;100.00
23059;BME280;30585;51.502;7.218;2022-08-01T08:12:31;155736.09;;;22.03;100.00
23059;BME280;30585;51.502;7.218;2022-08-01T08:14:59;155702.28;;;21.89;100.00
23059;BME280;30585;51.502;7.218;2022-08-01T08:17:27;155849.44;;;22.48;100.00
23059;BME280;30585;51.502;7.218;2022-08-01T08:20:02;155923.72;;;22.77;97.65
23059;BME280;30585;51.502;7.218;2022-08-01T08:22:36;155996.66;;;23.06;98.63
23059;BME280;30585;51.502;7.218;2022-08-01T08:25:05;156007.06;;;23.10;93.20
23059;BME280;30585;51.502;7.218;2022-08-01T08:27:34;155938.03;;;22.83;93.18
23059;BME280;30585;51.502;7.218;2022-08-01T08:30:04;155909.38;;;22.71;97.18
23059;BME280;30585;51.502;7.218;2022-08-01T08:32:34;155957.56;;;22.91;99.48
23059;BME280;30585;51.502;7.218;2022-08-01T08:35:02;156054.00;;;23.29;98.12
23059;BME280;30585;51.502;7.218;2022-08-01T08:37:31;156072.28;;;23.36;88.95
23059;BME280;30585;51.502;7.218;2022-08-01T08:40:10;155917.22;;;22.75;88.21
23059;BME280;30585;51.502;7.218;2022-08-01T08:42:39;155986.22;;;23.02;92.90
23059;BME280;30585;51.502;7.218;2022-08-01T08:45:09;155947.16;;;22.86;89.49
23059;BME280;30585;51.502;7.218;2022-08-01T08:47:38;156027.94;;;23.18;95.04
23059;BME280;30585;51.502;7.218;2022-08-01T08:50:07;156080.06;;;23.39;90.88
23059;BME280;30585;51.502;7.218;2022-08-01T08:52:37;156117.88;;;23.54;84.72
23059;BME280;30585;51.502;7.218;2022-08-01T08:55:07;156021.41;;;23.16;88.37
23059;BME280;30585;51.502;7.218;2022-08-01T08:57:40;155991.44;;;23.04;91.76
23059;BME280;30585;51.502;7.218;2022-08-01T09:00:09;156081.41;;;23.40;82.96
23059;BME280;30585;51.502;7.218;2022-08-01T09:02:40;155958.88;;;22.91;87.68
23059;BME280;30585;51.502;7.218;2022-08-01T09:05:09;155966.66;;;22.94;88.28
23059;BME280;30585;51.502;7.218;2022-08-01T09:07:44;155846.84;;;22.47;88.77
23059;BME280;30585;51.502;7.218;2022-08-01T09:10:12;155913.28;;;22.73;92.08
23059;BME280;30585;51.502;7.218;2022-08-01T09:13:02;155944.53;;;22.85;86.39
23059;BME280;30585;51.502;7.218;2022-08-01T09:15:38;155928.94;;;22.79;88.48
23059;BME280;30585;51.502;7.218;2022-08-01T09:18:07;155999.28;;;23.07;85.73
23059;BME280;30585;51.502;7.218;2022-08-01T09:20:35;155939.31;;;22.83;86.65
23059;BME280;30585;51.502;7.218;2022-08-01T09:23:03;155983.59;;;23.01;83.17
23059;BME280;30585;51.502;7.218;2022-08-01T09:25:50;155977.09;;;22.98;84.60
23059;BME280;30585;51.502;7.218;2022-08-01T09:28:27;155884.59;;;22.62;86.20
23059;BME280;30585;51.502;7.218;2022-08-01T09:30:55;156060.56;;;23.31;90.20
23059;BME280;30585;51.502;7.218;2022-08-01T09:33:23;156130.91;;;23.59;86.76
23059;BME280;30585;51.502;7.218;2022-08-01T09:35:55;156276.94;;;24.17;87.18
23059;BME280;30585;51.502;7.218;2022-08-01T09:38:25;156280.84;;;24.19;79.40
23059;BME280;30585;51.502;7.218;2022-08-01T09:40:55;156331.69;;;24.39;78.59
23059;BME280;30585;51.502;7.218;2022-08-01T09:43:27;156318.66;;;24.34;82.28
23059;BME280;30585;51.502;7.218;2022-08-01T09:45:57;156207.81;;;23.90;78.33
23059;BME280;30585;51.502;7.218;2022-08-01T09:48:26;156190.84;;;23.83;78.70
23059;BME280;30585;51.502;7.218;2022-08-01T09:50:56;156129.59;;;23.59;83.01
23059;BME280;30585;51.502;7.218;2022-08-01T09:53:44;156167.38;;;23.74;79.91
23059;BME280;30585;51.502;7.218;2022-08-01T09:56:17;156142.66;;;23.64;80.46
23059;BME280;30585;51.502;7.218;2022-08-01T09:58:51;156189.56;;;23.83;74.89
23059;BME280;30585;51.502;7.218;2022-08-01T10:01:25;156197.34;;;23.86;75.19
23059;BME280;30585;51.502;7.218;2022-08-01T10:04:11;156335.63;;;24.40;81.10
23059;BME280;30585;51.502;7.218;2022-08-01T10:06:42;156339.50;;;24.42;72.63
23059;BME280;30585;51.502;7.218;2022-08-01T10:09:12;156429.53;;;24.78;77.86
23059;BME280;30585;51.502;7.218;2022-08-01T10:11:42;156421.72;;;24.74;74.64
23059;BME280;30585;51.502;7.218;2022-08-01T10:14:12;156472.59;;;24.95;72.89
23059;BME280;30585;51.502;7.218;2022-08-01T10:16:44;156385.16;;;24.60;75.24
23059;BME280;30585;51.502;7.218;2022-08-01T10:19:21;156347.34;;;24.45;72.43
23059;BME280;30585;51.502;7.218;2022-08-01T10:21:49;156338.22;;;24.41;70.24
23059;BME280;30585;51.502;7.218;2022-08-01T10:24:26;156284.75;;;24.20;73.74
23059;BME280;30585;51.502;7.218;2022-08-01T10:26:59;156292.59;;;24.23;72.04
23059;BME280;30585;51.502;7.218;2022-08-01T10:29:40;156226.09;;;23.97;71.96
23059;BME280;30585;51.502;7.218;2022-08-01T10:32:13;156236.53;;;24.01;74.47
23059;BME280;30585;51.502;7.218;2022-08-01T10:34:41;156117.88;;;23.54;74.94
23059;BME280;30585;51.502;7.218;2022-08-01T10:37:12;156121.81;;;23.56;72.60
23059;BME280;30585;51.502;7.218;2022-08-01T10:39:41;156119.19;;;23.55;75.88
23059;BME280;30585;51.502;7.218;2022-08-01T10:42:10;156065.72;;;23.33;80.14
23059;BME280;30585;51.502;7.218;2022-08-01T10:44:42;156025.34;;;23.17;80.18
23059;BME280;30585;51.502;7.218;2022-08-01T10:47:17;155994.06;;;23.05;81.21
23059;BME280;30585;51.502;7.218;2022-08-01T10:49:57;155984.94;;;23.01;81.18
23059;BME280;30585;51.502;7.218;2022-08-01T10:52:28;155996.66;;;23.06;81.16
23059;BME280;30585;51.502;7.218;2022-08-01T10:55:02;155962.78;;;22.93;79.38
23059;BME280;30585;51.502;7.218;2022-08-01T10:57:41;155884.59;;;22.62;78.63
23059;BME280;30585;51.502;7.218;2022-08-01T11:00:21;155956.28;;;22.90;78.11
23059;BME280;30585;51.502;7.218;2022-08-01T11:02:58;155925.00;;;22.78;78.55
23059;BME280;30585;51.502;7.218;2022-08-01T11:05:31;155943.22;;;22.85;78.97
23059;BME280;30585;51.502;7.218;2022-08-01T11:08:02;156038.38;;;23.23;76.07
23059;BME280;30585;51.502;7.218;2022-08-01T11:10:35;156133.53;;;23.60;75.54
23059;BME280;30585;51.502;7.218;2022-08-01T11:13:05;156057.94;;;23.30;76.44
23059;BME280;30585;51.502;7.218;2022-08-01T11:15:36;156067.06;;;23.34;75.32
23059;BME280;30585;51.502;7.218;2022-08-01T11:18:30;156081.41;;;23.40;78.05
23059;BME280;30585;51.502;7.218;2022-08-01T11:20:59;156001.88;;;23.08;77.38
23059;BME280;30585;51.502;7.218;2022-08-01T11:23:49;155947.16;;;22.86;77.67
23059;BME280;30585;51.502;7.218;2022-08-01T11:26:18;155961.50;;;22.92;77.93
23059;BME280;30585;51.502;7.218;2022-08-01T11:29:17;155935.44;;;22.82;77.95
23059;BME280;30585;51.502;7.218;2022-08-01T11:31:49;155906.75;;;22.70;81.80
23059;BME280;30585;51.502;7.218;2022-08-01T11:34:18;155905.44;;;22.70;80.00
23059;BME280;30585;51.502;7.218;2022-08-01T11:36:47;155895.03;;;22.66;81.99
23059;BME280;30585;51.502;7.218;2022-08-01T11:39:24;155895.03;;;22.66;78.55
23059;BME280;30585;51.502;7.218;2022-08-01T11:41:52;155943.22;;;22.85;78.23
23059;BME280;30585;51.502;7.218;2022-08-01T11:44:23;156064.44;;;23.33;78.99
23059;BME280;30585;51.502;7.218;2022-08-01T11:47:02;156151.75;;;23.68;76.96
23059;BME280;30585;51.502;7.218;2022-08-01T11:49:46;156166.09;;;23.73;75.40
23059;BME280;30585;51.502;7.218;2022-08-01T11:52:18;156140.03;;;23.63;77.91
23059;BME280;30585;51.502;7.218;2022-08-01T11:54:49;156046.22;;;23.26;78.00
23059;BME280;30585;51.502;7.218;2022-08-01T11:57:18;156112.63;;;23.52;78.02
23059;BME280;30585;51.502;7.218;2022-08-01T11:59:51;156163.50;;;23.72;77.39
23059;BME280;30585;51.502;7.218;2022-08-01T12:02:31;156313.44;;;24.32;74.25
23059;BME280;30585;51.502;7.218;2022-08-01T12:05:03;156325.16;;;24.36;69.12
23059;BME280;30585;51.502;7.218;2022-08-01T12:07:35;156233.94;;;24.00;71.67
23059;BME280;30585;51.502;7.218;2022-08-01T12:10:05;156155.66;;;23.69;72.73
23059;BME280;30585;51.502;7.218;2022-08-01T12:12:34;156194.78;;;23.85;75.45
23059;BME280;30585;51.502;7.218;2022-08-01T12:15:05;156240.44;;;24.03;74.13
23059;BME280;30585;51.502;7.218;2022-08-01T12:17:39;156129.59;;;23.59;75.60
23059;BME280;30585;51.502;7.218;2022-08-01T12:20:23;156218.25;;;23.94;71.49
23059;BME280;30585;51.502;7.218;2022-08-01T12:22:56;156262.59;;;24.11;70.84
23059;BME280;30585;51.502;7.218;2022-08-01T12:25:24;156333.00;;;24.39;74.54
23059;BME280;30585;51.502;7.218;2022-08-01T12:27:52;156505.19;;;25.08;72.03
23059;BME280;30585;51.502;7.218;2022-08-01T12:30:23;156539.06;;;25.21;66.43
23059;BME280;30585;51.502;7.218;2022-08-01T12:32:53;156570.41;;;25.33;66.56
23059;BME280;30585;51.502;7.218;2022-08-01T12:35:24;156528.66;;;25.17;68.05
23059;BME280;30585;51.502;7.218;2022-08-01T12:37:53;156424.31;;;24.76;68.20
23059;BME280;30585;51.502;7.218;2022-08-01T12:40:23;156429.53;;;24.78;69.26
23059;BME280;30585;51.502;7.218;2022-08-01T12:42:52;156322.56;;;24.35;72.92
23059;BME280;30585;51.502;7.218;2022-08-01T12:45:22;156218.25;;;23.94;71.62
23059;BME280;30585;51.502;7.218;2022-08-01T12:47:53;156197.34;;;23.86;74.05
23059;BME280;30585;51.502;7.218;2022-08-01T12:50:23;156085.28;;;23.41;73.76
23059;BME280;30585;51.502;7.218;2022-08-01T12:52:51;156087.91;;;23.42;74.69
23059;BME280;30585;51.502;7.218;2022-08-01T12:55:21;156141.31;;;23.63;71.63
23059;BME280;30585;51.502;7.218;2022-08-01T12:58:04;156202.56;;;23.88;75.64
23059;BME280;30585;51.502;7.218;2022-08-01T13:00:33;156263.88;;;24.12;71.07
23059;BME280;30585;51.502;7.218;2022-08-01T13:03:06;156322.56;;;24.35;72.25
23059;BME280;30585;51.502;7.218;2022-08-01T13:05:44;156382.56;;;24.59;71.83